sensor_id;sensor_type;location;lat;lon;timestamp;P1;durP1;ratioP1;P2;durP2;ratioP2
51836;SDS011;38941;53.254;6.600;2023-04-24T00:01:03;6.38;;;3.00;;
51836;SDS011;38941;53.254;6.600;2023-04-24T00:03:07;5.32;;;3.67;;
51836;SDS011;38941;53.254;6.600;2023-04-24T00:05:08;5.03;;;3.47;;
51836;SDS011;38941;53.254;6.600;2023-04-24T00:07:10;5.20;;;3.58;;
51836;SDS011;38941;53.254;6.600;2023-04-24T00:09:13;5.38;;;3.15;;
51836;SDS011;38941;53.254;6.600;2023-04-24T00:11:13;5.13;;;3.40;;
51836;SDS011;38941;53.254;6.600;2023-04-24T00:13:14;5.60;;;3.60;;
51836;SDS011;38941;53.254;6.600;2023-04-24T00:15:15;5.55;;;4.00;;
51836;SDS011;38941;53.254;6.600;2023-04-24T00:17:16;5.80;;;4.15;;
51836;SDS011;38941;53.254;6.600;2023-04-24T00:19:26;7.07;;;3.90;;
51836;SDS011;38941;53.254;6.600;2023-04-24T00:21:29;5.70;;;3.90;;
51836;SDS011;38941;53.254;6.600;2023-04-24T00:23:32;5.28;;;3.95;;
51836;SDS011;38941;53.254;6.600;2023-04-24T00:25:33;4.93;;;3.33;;
51836;SDS011;38941;53.254;6.600;2023-04-24T00:27:34;4.63;;;3.20;;
51836;SDS011;38941;53.254;6.600;2023-04-24T00:29:39;4.93;;;3.33;;
51836;SDS011;38941;53.254;6.600;2023-04-24T00:31:39;6.50;;;3.28;;
51836;SDS011;38941;53.254;6.600;2023-04-24T00:33:40;5.90;;;3.58;;
51836;SDS011;38941;53.254;6.600;2023-04-24T00:35:41;6.57;;;3.10;;
51836;SDS011;38941;53.254;6.600;2023-04-24T00:37:42;4.85;;;2.70;;
51836;SDS011;38941;53.254;6.600;2023-04-24T00:39:43;2.90;;;2.40;;
51836;SDS011;38941;53.254;6.600;2023-04-24T00:41:45;8.30;;;4.13;;
51836;SDS011;38941;53.254;6.600;2023-04-24T00:43:48;3.65;;;2.30;;
51836;SDS011;38941;53.254;6.600;2023-04-24T00:45:49;2.42;;;1.60;;
51836;SDS011;38941;53.254;6.600;2023-04-24T00:47:50;2.67;;;1.25;;
51836;SDS011;38941;53.254;6.600;2023-04-24T00:49:55;2.10;;;1.38;;
51836;SDS011;38941;53.254;6.600;2023-04-24T00:51:56;2.00;;;1.70;;
51836;SDS011;38941;53.254;6.600;2023-04-24T00:53:57;1.40;;;1.20;;
51836;SDS011;38941;53.254;6.600;2023-04-24T00:55:57;2.13;;;1.25;;
51836;SDS011;38941;53.254;6.600;2023-04-24T00:57:58;2.20;;;1.58;;
51836;SDS011;38941;53.254;6.600;2023-04-24T01:00:00;1.63;;;1.25;;
51836;SDS011;38941;53.254;6.600;2023-04-24T01:02:00;5.30;;;1.42;;
51836;SDS011;38941;53.254;6.600;2023-04-24T01:04:03;1.63;;;0.88;;
51836;SDS011;38941;53.254;6.600;2023-04-24T01:06:05;1.30;;;1.10;;
51836;SDS011;38941;53.254;6.600;2023-04-24T01:08:07;1.38;;;1.05;;
51836;SDS011;38941;53.254;6.600;2023-04-24T01:10:08;1.42;;;1.10;;
51836;SDS011;38941;53.254;6.600;2023-04-24T01:12:09;1.35;;;1.08;;
51836;SDS011;38941;53.254;6.600;2023-04-24T01:14:11;2.17;;;1.30;;
51836;SDS011;38941;53.254;6.600;2023-04-24T01:16:16;1.08;;;0.85;;
51836;SDS011;38941;53.254;6.600;2023-04-24T01:18:20;1.00;;;0.75;;
51836;SDS011;38941;53.254;6.600;2023-04-24T01:20:22;2.60;;;1.00;;
51836;SDS011;38941;53.254;6.600;2023-04-24T01:22:26;1.67;;;0.77;;
51836;SDS011;38941;53.254;6.600;2023-04-24T01:24:27;1.27;;;0.90;;
51836;SDS011;38941;53.254;6.600;2023-04-24T01:26:29;0.95;;;0.70;;
51836;SDS011;38941;53.254;6.600;2023-04-24T01:28:33;0.57;;;0.57;;
51836;SDS011;38941;53.254;6.600;2023-04-24T01:30:35;0.80;;;0.77;;
51836;SDS011;38941;53.254;6.600;2023-04-24T01:32:36;2.05;;;0.60;;
51836;SDS011;38941;53.254;6.600;2023-04-24T01:34:37;0.70;;;0.70;;
51836;SDS011;38941;53.254;6.600;2023-04-24T01:36:39;0.70;;;0.70;;
51836;SDS011;38941;53.254;6.600;2023-04-24T01:38:41;0.60;;;0.60;;
51836;SDS011;38941;53.254;6.600;2023-04-24T01:40:43;0.50;;;0.50;;
51836;SDS011;38941;53.254;6.600;2023-04-24T01:42:43;0.75;;;0.75;;
51836;SDS011;38941;53.254;6.600;2023-04-24T01:44:45;0.70;;;0.70;;
51836;SDS011;38941;53.254;6.600;2023-04-24T01:46:47;1.67;;;0.82;;
51836;SDS011;38941;53.254;6.600;2023-04-24T01:48:48;0.63;;;0.60;;
51836;SDS011;38941;53.254;6.600;2023-04-24T01:50:50;0.70;;;0.70;;
51836;SDS011;38941;53.254;6.600;2023-04-24T01:52:50;1.63;;;0.90;;
51836;SDS011;38941;53.254;6.600;2023-04-24T01:54:52;1.10;;;1.00;;
51836;SDS011;38941;53.254;6.600;2023-04-24T01:56:53;1.10;;;0.90;;
51836;SDS011;38941;53.254;6.600;2023-04-24T01:58:53;1.30;;;0.88;;
51836;SDS011;38941;53.254;6.600;2023-04-24T02:00:58;1.20;;;0.95;;
51836;SDS011;38941;53.254;6.600;2023-04-24T02:02:59;1.33;;;1.23;;
51836;SDS011;38941;53.254;6.600;2023-04-24T02:05:02;1.30;;;1.20;;
51836;SDS011;38941;53.254;6.600;2023-04-24T02:07:03;1.23;;;1.13;;
51836;SDS011;38941;53.254;6.600;2023-04-24T02:09:03;1.95;;;1.23;;
51836;SDS011;38941;53.254;6.600;2023-04-24T02:11:05;1.17;;;1.05;;
51836;SDS011;38941;53.254;6.600;2023-04-24T02:13:10;3.05;;;1.58;;
51836;SDS011;38941;53.254;6.600;2023-04-24T02:15:11;1.50;;;1.40;;
51836;SDS011;38941;53.254;6.600;2023-04-24T02:17:13;2.72;;;1.50;;
51836;SDS011;38941;53.254;6.600;2023-04-24T02:19:15;2.05;;;1.50;;
51836;SDS011;38941;53.254;6.600;2023-04-24T02:21:16;2.17;;;1.85;;
51836;SDS011;38941;53.254;6.600;2023-04-24T02:23:17;1.88;;;1.63;;
51836;SDS011;38941;53.254;6.600;2023-04-24T02:25:18;1.63;;;1.50;;
51836;SDS011;38941;53.254;6.600;2023-04-24T02:27:19;2.28;;;1.70;;
51836;SDS011;38941;53.254;6.600;2023-04-24T02:29:20;2.05;;;1.80;;
51836;SDS011;38941;53.254;6.600;2023-04-24T02:31:21;2.85;;;2.00;;
51836;SDS011;38941;53.254;6.600;2023-04-24T02:33:24;3.70;;;2.30;;
51836;SDS011;38941;53.254;6.600;2023-04-24T02:35:25;2.53;;;2.00;;
51836;SDS011;38941;53.254;6.600;2023-04-24T02:37:25;3.50;;;2.20;;
51836;SDS011;38941;53.254;6.600;2023-04-24T02:39:32;3.20;;;2.10;;
51836;SDS011;38941;53.254;6.600;2023-04-24T02:41:33;2.72;;;2.20;;
51836;SDS011;38941;53.254;6.600;2023-04-24T02:43:34;2.40;;;1.95;;
51836;SDS011;38941;53.254;6.600;2023-04-24T02:45:34;5.10;;;2.45;;
51836;SDS011;38941;53.254;6.600;2023-04-24T02:47:35;6.30;;;3.03;;
51836;SDS011;38941;53.254;6.600;2023-04-24T02:49:36;2.67;;;2.40;;
51836;SDS011;38941;53.254;6.600;2023-04-24T02:51:40;4.35;;;2.80;;
51836;SDS011;38941;53.254;6.600;2023-04-24T02:53:41;6.28;;;3.08;;
51836;SDS011;38941;53.254;6.600;2023-04-24T02:55:42;4.28;;;2.83;;
51836;SDS011;38941;53.254;6.600;2023-04-24T02:57:43;3.40;;;2.60;;
51836;SDS011;38941;53.254;6.600;2023-04-24T02:59:43;5.30;;;3.10;;
51836;SDS011;38941;53.254;6.600;2023-04-24T03:01:44;3.85;;;2.85;;
51836;SDS011;38941;53.254;6.600;2023-04-24T03:05:58;4.15;;;2.97;;
51836;SDS011;38941;53.254;6.600;2023-04-24T03:07:59;3.63;;;2.75;;
51836;SDS011;38941;53.254;6.600;2023-04-24T03:10:00;5.40;;;2.85;;
51836;SDS011;38941;53.254;6.600;2023-04-24T03:12:00;4.65;;;2.97;;
51836;SDS011;38941;53.254;6.600;2023-04-24T03:14:01;4.55;;;3.33;;
51836;SDS011;38941;53.254;6.600;2023-04-24T03:16:02;4.65;;;3.10;;
51836;SDS011;38941;53.254;6.600;2023-04-24T03:18:03;4.60;;;3.47;;
51836;SDS011;38941;53.254;6.600;2023-04-24T03:20:04;5.05;;;3.63;;
51836;SDS011;38941;53.254;6.600;2023-04-24T03:22:07;6.45;;;3.47;;
51836;SDS011;38941;53.254;6.600;2023-04-24T03:24:09;4.93;;;3.63;;
51836;SDS011;38941;53.254;6.600;2023-04-24T03:26:10;6.25;;;3.60;;
51836;SDS011;38941;53.254;6.600;2023-04-24T03:28:11;4.68;;;3.55;;
51836;SDS011;38941;53.254;6.600;2023-04-24T03:30:12;5.38;;;3.47;;
51836;SDS011;38941;53.254;6.600;2023-04-24T03:32:14;5.72;;;4.00;;
51836;SDS011;38941;53.254;6.600;2023-04-24T03:34:14;5.72;;;3.90;;
51836;SDS011;38941;53.254;6.600;2023-04-24T03:36:15;5.15;;;3.80;;
51836;SDS011;38941;53.254;6.600;2023-04-24T03:38:16;5.57;;;4.18;;
51836;SDS011;38941;53.254;6.600;2023-04-24T03:40:17;6.80;;;4.65;;
51836;SDS011;38941;53.254;6.600;2023-04-24T03:42:18;5.97;;;4.35;;
51836;SDS011;38941;53.254;6.600;2023-04-24T03:44:19;6.65;;;4.70;;
51836;SDS011;38941;53.254;6.600;2023-04-24T03:46:20;6.75;;;4.38;;
51836;SDS011;38941;53.254;6.600;2023-04-24T03:48:21;5.90;;;4.13;;
51836;SDS011;38941;53.254;6.600;2023-04-24T03:50:22;6.60;;;4.68;;
51836;SDS011;38941;53.254;6.600;2023-04-24T03:52:23;7.90;;;4.75;;
51836;SDS011;38941;53.254;6.600;2023-04-24T03:54:24;7.88;;;4.78;;
51836;SDS011;38941;53.254;6.600;2023-04-24T03:56:26;9.10;;;5.20;;
51836;SDS011;38941;53.254;6.600;2023-04-24T03:58:26;7.45;;;5.68;;
51836;SDS011;38941;53.254;6.600;2023-04-24T04:00:28;8.52;;;5.85;;
51836;SDS011;38941;53.254;6.600;2023-04-24T04:02:31;7.20;;;5.55;;
51836;SDS011;38941;53.254;6.600;2023-04-24T04:04:32;9.65;;;6.82;;
51836;SDS011;38941;53.254;6.600;2023-04-24T04:06:33;11.07;;;6.72;;
51836;SDS011;38941;53.254;6.600;2023-04-24T04:08:34;8.20;;;6.47;;
51836;SDS011;38941;53.254;6.600;2023-04-24T04:10:35;10.57;;;7.00;;
51836;SDS011;38941;53.254;6.600;2023-04-24T04:12:36;10.38;;;6.80;;
51836;SDS011;38941;53.254;6.600;2023-04-24T04:14:38;9.95;;;7.30;;
51836;SDS011;38941;53.254;6.600;2023-04-24T04:16:39;10.88;;;7.38;;
51836;SDS011;38941;53.254;6.600;2023-04-24T04:18:45;9.63;;;7.18;;
51836;SDS011;38941;53.254;6.600;2023-04-24T04:20:46;11.25;;;7.43;;
51836;SDS011;38941;53.254;6.600;2023-04-24T04:22:47;11.25;;;7.45;;
51836;SDS011;38941;53.254;6.600;2023-04-24T04:24:48;10.05;;;6.88;;
51836;SDS011;38941;53.254;6.600;2023-04-24T04:26:51;13.77;;;7.53;;
51836;SDS011;38941;53.254;6.600;2023-04-24T04:28:52;10.32;;;7.38;;
51836;SDS011;38941;53.254;6.600;2023-04-24T04:30:53;10.10;;;7.50;;
51836;SDS011;38941;53.254;6.600;2023-04-24T04:32:55;11.90;;;7.95;;
51836;SDS011;38941;53.254;6.600;2023-04-24T04:34:56;10.88;;;6.93;;
51836;SDS011;38941;53.254;6.600;2023-04-24T04:36:57;10.15;;;6.80;;
51836;SDS011;38941;53.254;6.600;2023-04-24T04:39:01;12.25;;;6.95;;
51836;SDS011;38941;53.254;6.600;2023-04-24T04:41:03;10.50;;;7.22;;
51836;SDS011;38941;53.254;6.600;2023-04-24T04:43:05;8.32;;;6.30;;
51836;SDS011;38941;53.254;6.600;2023-04-24T04:45:09;10.20;;;6.45;;
51836;SDS011;38941;53.254;6.600;2023-04-24T04:47:11;11.43;;;7.60;;
51836;SDS011;38941;53.254;6.600;2023-04-24T04:49:12;8.35;;;5.97;;
51836;SDS011;38941;53.254;6.600;2023-04-24T04:51:14;10.88;;;6.55;;
51836;SDS011;38941;53.254;6.600;2023-04-24T04:53:15;9.25;;;6.00;;
51836;SDS011;38941;53.254;6.600;2023-04-24T04:55:15;7.80;;;5.85;;
51836;SDS011;38941;53.254;6.600;2023-04-24T04:57:16;7.72;;;6.13;;
51836;SDS011;38941;53.254;6.600;2023-04-24T04:59:18;6.60;;;5.15;;
51836;SDS011;38941;53.254;6.600;2023-04-24T05:01:19;5.97;;;4.50;;
51836;SDS011;38941;53.254;6.600;2023-04-24T05:03:23;5.60;;;4.32;;
51836;SDS011;38941;53.254;6.600;2023-04-24T05:05:24;5.95;;;4.60;;
51836;SDS011;38941;53.254;6.600;2023-04-24T05:07:24;4.72;;;3.75;;
51836;SDS011;38941;53.254;6.600;2023-04-24T05:09:25;6.68;;;4.30;;
51836;SDS011;38941;53.254;6.600;2023-04-24T05:11:27;4.45;;;3.38;;
51836;SDS011;38941;53.254;6.600;2023-04-24T05:13:29;6.38;;;3.95;;
51836;SDS011;38941;53.254;6.600;2023-04-24T05:15:30;7.05;;;3.90;;
51836;SDS011;38941;53.254;6.600;2023-04-24T05:17:31;7.18;;;4.70;;
51836;SDS011;38941;53.254;6.600;2023-04-24T05:19:32;5.85;;;3.70;;
51836;SDS011;38941;53.254;6.600;2023-04-24T05:21:35;5.30;;;3.35;;
51836;SDS011;38941;53.254;6.600;2023-04-24T05:23:36;5.82;;;3.45;;
51836;SDS011;38941;53.254;6.600;2023-04-24T05:25:37;5.18;;;3.40;;
51836;SDS011;38941;53.254;6.600;2023-04-24T05:27:40;5.25;;;3.42;;
51836;SDS011;38941;53.254;6.600;2023-04-24T05:29:44;5.05;;;3.10;;
51836;SDS011;38941;53.254;6.600;2023-04-24T05:31:48;6.45;;;3.00;;
51836;SDS011;38941;53.254;6.600;2023-04-24T05:33:49;7.60;;;2.95;;
51836;SDS011;38941;53.254;6.600;2023-04-24T05:35:51;5.45;;;2.95;;
51836;SDS011;38941;53.254;6.600;2023-04-24T05:37:55;5.53;;;2.75;;
51836;SDS011;38941;53.254;6.600;2023-04-24T05:39:55;4.65;;;3.17;;
51836;SDS011;38941;53.254;6.600;2023-04-24T05:41:57;4.03;;;2.65;;
51836;SDS011;38941;53.254;6.600;2023-04-24T05:43:58;5.90;;;2.80;;
51836;SDS011;38941;53.254;6.600;2023-04-24T05:46:01;9.02;;;2.92;;
51836;SDS011;38941;53.254;6.600;2023-04-24T05:48:02;10.98;;;3.20;;
51836;SDS011;38941;53.254;6.600;2023-04-24T05:50:03;5.53;;;2.78;;
51836;SDS011;38941;53.254;6.600;2023-04-24T05:52:04;6.68;;;2.92;;
51836;SDS011;38941;53.254;6.600;2023-04-24T05:54:06;6.05;;;3.13;;
51836;SDS011;38941;53.254;6.600;2023-04-24T05:56:07;6.70;;;3.40;;
51836;SDS011;38941;53.254;6.600;2023-04-24T05:58:09;6.50;;;3.05;;
51836;SDS011;38941;53.254;6.600;2023-04-24T06:00:10;6.78;;;3.55;;
51836;SDS011;38941;53.254;6.600;2023-04-24T06:02:12;6.35;;;3.40;;
51836;SDS011;38941;53.254;6.600;2023-04-24T06:04:12;6.00;;;3.20;;
51836;SDS011;38941;53.254;6.600;2023-04-24T06:06:13;5.68;;;2.63;;
51836;SDS011;38941;53.254;6.600;2023-04-24T06:08:16;5.57;;;2.42;;
51836;SDS011;38941;53.254;6.600;2023-04-24T06:10:18;3.58;;;2.13;;
51836;SDS011;38941;53.254;6.600;2023-04-24T06:12:20;5.20;;;2.92;;
51836;SDS011;38941;53.254;6.600;2023-04-24T06:14:21;5.47;;;2.92;;
51836;SDS011;38941;53.254;6.600;2023-04-24T06:16:23;3.97;;;2.70;;
51836;SDS011;38941;53.254;6.600;2023-04-24T06:18:24;3.72;;;2.50;;
51836;SDS011;38941;53.254;6.600;2023-04-24T06:20:25;7.00;;;2.88;;
51836;SDS011;38941;53.254;6.600;2023-04-24T06:22:26;5.47;;;3.25;;
51836;SDS011;38941;53.254;6.600;2023-04-24T06:24:28;4.72;;;3.28;;
51836;SDS011;38941;53.254;6.600;2023-04-24T06:26:30;6.55;;;3.53;;
51836;SDS011;38941;53.254;6.600;2023-04-24T06:28:30;7.22;;;3.03;;
51836;SDS011;38941;53.254;6.600;2023-04-24T06:30:32;5.38;;;3.15;;
51836;SDS011;38941;53.254;6.600;2023-04-24T06:32:33;6.55;;;3.20;;
51836;SDS011;38941;53.254;6.600;2023-04-24T06:34:35;4.97;;;2.78;;
51836;SDS011;38941;53.254;6.600;2023-04-24T06:36:36;5.40;;;3.15;;
51836;SDS011;38941;53.254;6.600;2023-04-24T06:38:38;6.10;;;2.70;;
51836;SDS011;38941;53.254;6.600;2023-04-24T06:40:39;6.63;;;2.40;;
51836;SDS011;38941;53.254;6.600;2023-04-24T06:42:40;3.17;;;2.55;;
51836;SDS011;38941;53.254;6.600;2023-04-24T06:44:42;6.63;;;2.88;;
51836;SDS011;38941;53.254;6.600;2023-04-24T06:46:45;4.43;;;2.70;;
51836;SDS011;38941;53.254;6.600;2023-04-24T06:48:46;6.18;;;2.88;;
51836;SDS011;38941;53.254;6.600;2023-04-24T06:50:48;7.68;;;3.08;;
51836;SDS011;38941;53.254;6.600;2023-04-24T06:52:49;5.60;;;3.20;;
51836;SDS011;38941;53.254;6.600;2023-04-24T06:54:50;3.25;;;2.20;;
51836;SDS011;38941;53.254;6.600;2023-04-24T06:56:51;6.50;;;2.13;;
51836;SDS011;38941;53.254;6.600;2023-04-24T06:58:54;5.75;;;2.20;;
51836;SDS011;38941;53.254;6.600;2023-04-24T07:00:55;3.45;;;1.85;;
51836;SDS011;38941;53.254;6.600;2023-04-24T07:02:56;2.30;;;1.42;;
51836;SDS011;38941;53.254;6.600;2023-04-24T07:04:59;5.03;;;1.25;;
51836;SDS011;38941;53.254;6.600;2023-04-24T07:07:02;2.67;;;1.00;;
51836;SDS011;38941;53.254;6.600;2023-04-24T07:09:03;4.70;;;1.00;;
51836;SDS011;38941;53.254;6.600;2023-04-24T07:11:05;3.20;;;1.20;;
51836;SDS011;38941;53.254;6.600;2023-04-24T07:13:06;2.22;;;1.17;;
51836;SDS011;38941;53.254;6.600;2023-04-24T07:15:07;2.28;;;1.20;;
51836;SDS011;38941;53.254;6.600;2023-04-24T07:17:08;2.17;;;1.27;;
51836;SDS011;38941;53.254;6.600;2023-04-24T07:19:11;2.17;;;1.50;;
51836;SDS011;38941;53.254;6.600;2023-04-24T07:21:13;4.90;;;1.30;;
51836;SDS011;38941;53.254;6.600;2023-04-24T07:23:14;2.45;;;1.38;;
51836;SDS011;38941;53.254;6.600;2023-04-24T07:25:16;4.25;;;1.90;;
51836;SDS011;38941;53.254;6.600;2023-04-24T07:27:17;4.05;;;1.58;;
51836;SDS011;38941;53.254;6.600;2023-04-24T07:29:18;3.67;;;1.38;;
51836;SDS011;38941;53.254;6.600;2023-04-24T07:31:26;5.03;;;1.30;;
51836;SDS011;38941;53.254;6.600;2023-04-24T07:33:27;4.45;;;1.20;;
51836;SDS011;38941;53.254;6.600;2023-04-24T07:35:28;3.70;;;1.08;;
51836;SDS011;38941;53.254;6.600;2023-04-24T07:37:28;5.00;;;1.95;;
51836;SDS011;38941;53.254;6.600;2023-04-24T07:39:30;5.75;;;1.80;;
51836;SDS011;38941;53.254;6.600;2023-04-24T07:41:32;2.95;;;1.85;;
51836;SDS011;38941;53.254;6.600;2023-04-24T07:43:33;3.72;;;1.85;;
51836;SDS011;38941;53.254;6.600;2023-04-24T07:45:35;10.13;;;3.00;;
51836;SDS011;38941;53.254;6.600;2023-04-24T07:47:38;5.53;;;2.22;;
51836;SDS011;38941;53.254;6.600;2023-04-24T07:49:41;6.05;;;1.75;;
51836;SDS011;38941;53.254;6.600;2023-04-24T07:51:43;5.05;;;1.80;;
51836;SDS011;38941;53.254;6.600;2023-04-24T07:53:47;6.53;;;1.80;;
51836;SDS011;38941;53.254;6.600;2023-04-24T07:55:49;5.20;;;2.05;;
51836;SDS011;38941;53.254;6.600;2023-04-24T07:57:50;2.88;;;1.75;;
51836;SDS011;38941;53.254;6.600;2023-04-24T07:59:51;3.85;;;2.22;;
51836;SDS011;38941;53.254;6.600;2023-04-24T08:01:53;3.80;;;2.00;;
51836;SDS011;38941;53.254;6.600;2023-04-24T08:03:55;6.78;;;2.50;;
51836;SDS011;38941;53.254;6.600;2023-04-24T08:05:58;6.55;;;3.35;;
51836;SDS011;38941;53.254;6.600;2023-04-24T08:07:59;10.30;;;3.30;;
51836;SDS011;38941;53.254;6.600;2023-04-24T08:10:00;5.63;;;3.20;;
51836;SDS011;38941;53.254;6.600;2023-04-24T08:12:00;5.45;;;3.15;;
51836;SDS011;38941;53.254;6.600;2023-04-24T08:14:03;8.65;;;4.35;;
51836;SDS011;38941;53.254;6.600;2023-04-24T08:16:04;9.60;;;4.55;;
51836;SDS011;38941;53.254;6.600;2023-04-24T08:18:05;15.25;;;6.05;;
51836;SDS011;38941;53.254;6.600;2023-04-24T08:20:06;20.55;;;7.25;;
51836;SDS011;38941;53.254;6.600;2023-04-24T08:22:15;13.52;;;6.82;;
51836;SDS011;38941;53.254;6.600;2023-04-24T08:24:16;15.88;;;7.53;;
51836;SDS011;38941;53.254;6.600;2023-04-24T08:26:18;14.77;;;7.75;;
51836;SDS011;38941;53.254;6.600;2023-04-24T08:28:18;13.80;;;7.07;;
51836;SDS011;38941;53.254;6.600;2023-04-24T08:30:20;17.20;;;7.03;;
51836;SDS011;38941;53.254;6.600;2023-04-24T08:32:21;13.10;;;7.45;;
51836;SDS011;38941;53.254;6.600;2023-04-24T08:34:22;17.30;;;7.00;;
51836;SDS011;38941;53.254;6.600;2023-04-24T08:36:23;18.30;;;7.20;;
51836;SDS011;38941;53.254;6.600;2023-04-24T08:38:23;15.32;;;6.32;;
51836;SDS011;38941;53.254;6.600;2023-04-24T08:40:27;18.38;;;7.90;;
51836;SDS011;38941;53.254;6.600;2023-04-24T08:42:30;17.50;;;7.95;;
51836;SDS011;38941;53.254;6.600;2023-04-24T08:44:34;20.25;;;7.28;;
51836;SDS011;38941;53.254;6.600;2023-04-24T08:46:36;14.05;;;6.90;;
51836;SDS011;38941;53.254;6.600;2023-04-24T08:48:37;10.35;;;6.53;;
51836;SDS011;38941;53.254;6.600;2023-04-24T08:50:40;13.43;;;5.85;;
51836;SDS011;38941;53.254;6.600;2023-04-24T08:52:42;18.15;;;7.20;;
51836;SDS011;38941;53.254;6.600;2023-04-24T08:54:45;16.58;;;6.88;;
51836;SDS011;38941;53.254;6.600;2023-04-24T08:56:47;13.98;;;7.20;;
51836;SDS011;38941;53.254;6.600;2023-04-24T08:58:52;17.30;;;6.85;;
51836;SDS011;38941;53.254;6.600;2023-04-24T09:00:54;16.15;;;6.47;;
51836;SDS011;38941;53.254;6.600;2023-04-24T09:02:55;16.65;;;7.15;;
51836;SDS011;38941;53.254;6.600;2023-04-24T09:04:58;17.95;;;6.75;;
51836;SDS011;38941;53.254;6.600;2023-04-24T09:06:59;14.80;;;6.63;;
51836;SDS011;38941;53.254;6.600;2023-04-24T09:09:01;12.30;;;6.63;;
51836;SDS011;38941;53.254;6.600;2023-04-24T09:11:04;13.70;;;6.78;;
51836;SDS011;38941;53.254;6.600;2023-04-24T09:13:06;12.48;;;6.55;;
51836;SDS011;38941;53.254;6.600;2023-04-24T09:15:09;13.63;;;6.50;;
51836;SDS011;38941;53.254;6.600;2023-04-24T09:17:11;14.02;;;6.38;;
51836;SDS011;38941;53.254;6.600;2023-04-24T09:19:12;13.80;;;5.97;;
51836;SDS011;38941;53.254;6.600;2023-04-24T09:21:13;10.57;;;5.70;;
51836;SDS011;38941;53.254;6.600;2023-04-24T09:23:17;13.88;;;5.90;;
51836;SDS011;38941;53.254;6.600;2023-04-24T09:25:18;11.80;;;5.30;;
51836;SDS011;38941;53.254;6.600;2023-04-24T09:27:20;9.63;;;5.90;;
51836;SDS011;38941;53.254;6.600;2023-04-24T09:29:23;15.80;;;5.47;;
51836;SDS011;38941;53.254;6.600;2023-04-24T09:31:27;14.52;;;6.00;;
51836;SDS011;38941;53.254;6.600;2023-04-24T09:33:28;12.48;;;5.20;;
51836;SDS011;38941;53.254;6.600;2023-04-24T09:35:29;11.48;;;5.07;;
51836;SDS011;38941;53.254;6.600;2023-04-24T09:37:34;7.78;;;4.57;;
51836;SDS011;38941;53.254;6.600;2023-04-24T09:39:37;9.55;;;5.32;;
51836;SDS011;38941;53.254;6.600;2023-04-24T09:41:50;9.88;;;4.80;;
51836;SDS011;38941;53.254;6.600;2023-04-24T09:46:28;11.30;;;4.40;;
51836;SDS011;38941;53.254;6.600;2023-04-24T09:48:35;10.27;;;4.78;;
51836;SDS011;38941;53.254;6.600;2023-04-24T09:50:38;13.63;;;4.47;;
51836;SDS011;38941;53.254;6.600;2023-04-24T09:52:42;10.32;;;4.07;;
51836;SDS011;38941;53.254;6.600;2023-04-24T09:54:57;7.65;;;3.55;;
51836;SDS011;38941;53.254;6.600;2023-04-24T09:56:58;13.43;;;4.47;;
51836;SDS011;38941;53.254;6.600;2023-04-24T09:59:06;13.18;;;4.13;;
51836;SDS011;38941;53.254;6.600;2023-04-24T10:01:08;12.65;;;4.32;;
51836;SDS011;38941;53.254;6.600;2023-04-24T10:03:10;9.00;;;3.53;;
51836;SDS011;38941;53.254;6.600;2023-04-24T10:05:11;7.75;;;3.40;;
51836;SDS011;38941;53.254;6.600;2023-04-24T10:07:13;8.52;;;3.70;;
51836;SDS011;38941;53.254;6.600;2023-04-24T10:09:15;10.68;;;3.65;;
51836;SDS011;38941;53.254;6.600;2023-04-24T10:11:17;6.22;;;3.10;;
51836;SDS011;38941;53.254;6.600;2023-04-24T10:13:18;7.53;;;3.05;;
51836;SDS011;38941;53.254;6.600;2023-04-24T10:15:20;10.07;;;3.17;;
51836;SDS011;38941;53.254;6.600;2023-04-24T10:17:22;9.38;;;3.40;;
51836;SDS011;38941;53.254;6.600;2023-04-24T10:19:25;12.35;;;3.83;;
51836;SDS011;38941;53.254;6.600;2023-04-24T10:21:26;8.20;;;2.97;;
51836;SDS011;38941;53.254;6.600;2023-04-24T10:23:28;6.68;;;3.33;;
51836;SDS011;38941;53.254;6.600;2023-04-24T10:25:33;4.82;;;2.78;;
51836;SDS011;38941;53.254;6.600;2023-04-24T10:27:35;8.15;;;2.35;;
51836;SDS011;38941;53.254;6.600;2023-04-24T10:29:38;7.10;;;2.45;;
51836;SDS011;38941;53.254;6.600;2023-04-24T10:31:40;5.70;;;2.42;;
51836;SDS011;38941;53.254;6.600;2023-04-24T10:33:42;8.45;;;2.25;;
51836;SDS011;38941;53.254;6.600;2023-04-24T10:35:45;4.57;;;2.42;;
51836;SDS011;38941;53.254;6.600;2023-04-24T10:37:50;7.78;;;2.38;;
51836;SDS011;38941;53.254;6.600;2023-04-24T10:39:59;10.35;;;2.33;;
51836;SDS011;38941;53.254;6.600;2023-04-24T10:42:00;6.97;;;2.35;;
51836;SDS011;38941;53.254;6.600;2023-04-24T10:46:06;7.05;;;2.13;;
51836;SDS011;38941;53.254;6.600;2023-04-24T10:48:09;11.15;;;1.88;;
51836;SDS011;38941;53.254;6.600;2023-04-24T10:50:16;9.23;;;2.25;;
51836;SDS011;38941;53.254;6.600;2023-04-24T10:52:16;4.72;;;2.15;;
51836;SDS011;38941;53.254;6.600;2023-04-24T10:54:34;5.13;;;2.13;;
51836;SDS011;38941;53.254;6.600;2023-04-24T10:56:36;5.28;;;1.50;;
51836;SDS011;38941;53.254;6.600;2023-04-24T10:58:43;7.00;;;1.63;;
51836;SDS011;38941;53.254;6.600;2023-04-24T11:00:58;4.75;;;1.58;;
51836;SDS011;38941;53.254;6.600;2023-04-24T11:03:00;8.98;;;1.88;;
51836;SDS011;38941;53.254;6.600;2023-04-24T11:05:03;7.63;;;1.50;;
51836;SDS011;38941;53.254;6.600;2023-04-24T11:07:05;3.78;;;1.58;;
51836;SDS011;38941;53.254;6.600;2023-04-24T11:09:07;5.65;;;1.30;;
51836;SDS011;38941;53.254;6.600;2023-04-24T11:11:18;4.50;;;1.30;;
51836;SDS011;38941;53.254;6.600;2023-04-24T11:13:23;5.15;;;2.03;;
51836;SDS011;38941;53.254;6.600;2023-04-24T11:15:25;6.75;;;2.03;;
51836;SDS011;38941;53.254;6.600;2023-04-24T11:17:29;7.03;;;1.30;;
51836;SDS011;38941;53.254;6.600;2023-04-24T11:19:34;7.00;;;2.47;;
51836;SDS011;38941;53.254;6.600;2023-04-24T11:23:41;7.55;;;1.40;;
51836;SDS011;38941;53.254;6.600;2023-04-24T11:25:52;5.07;;;1.95;;
51836;SDS011;38941;53.254;6.600;2023-04-24T11:28:14;7.60;;;1.42;;
51836;SDS011;38941;53.254;6.600;2023-04-24T11:30:19;8.30;;;2.35;;
51836;SDS011;38941;53.254;6.600;2023-04-24T11:32:25;8.00;;;1.95;;
51836;SDS011;38941;53.254;6.600;2023-04-24T11:34:27;11.20;;;2.38;;
51836;SDS011;38941;53.254;6.600;2023-04-24T11:36:31;5.78;;;1.48;;
51836;SDS011;38941;53.254;6.600;2023-04-24T11:38:34;6.47;;;1.30;;
51836;SDS011;38941;53.254;6.600;2023-04-24T11:40:35;6.43;;;1.35;;
51836;SDS011;38941;53.254;6.600;2023-04-24T11:42:38;3.10;;;1.42;;
51836;SDS011;38941;53.254;6.600;2023-04-24T11:44:41;10.60;;;2.30;;
51836;SDS011;38941;53.254;6.600;2023-04-24T11:46:42;7.97;;;1.30;;
51836;SDS011;38941;53.254;6.600;2023-04-24T11:48:46;4.28;;;1.02;;
51836;SDS011;38941;53.254;6.600;2023-04-24T11:50:46;10.20;;;2.00;;
51836;SDS011;38941;53.254;6.600;2023-04-24T11:52:48;11.57;;;2.08;;
51836;SDS011;38941;53.254;6.600;2023-04-24T11:54:50;8.18;;;1.73;;
51836;SDS011;38941;53.254;6.600;2023-04-24T11:56:52;6.20;;;1.88;;
51836;SDS011;38941;53.254;6.600;2023-04-24T11:58:52;15.38;;;1.30;;
51836;SDS011;38941;53.254;6.600;2023-04-24T12:00:56;5.82;;;1.98;;
51836;SDS011;38941;53.254;6.600;2023-04-24T12:03:08;8.45;;;1.50;;
51836;SDS011;38941;53.254;6.600;2023-04-24T12:07:41;6.22;;;1.40;;
51836;SDS011;38941;53.254;6.600;2023-04-24T12:09:46;8.80;;;1.35;;
51836;SDS011;38941;53.254;6.600;2023-04-24T12:11:54;10.63;;;2.00;;
51836;SDS011;38941;53.254;6.600;2023-04-24T12:13:57;7.13;;;1.00;;
51836;SDS011;38941;53.254;6.600;2023-04-24T12:15:59;7.35;;;1.60;;
51836;SDS011;38941;53.254;6.600;2023-04-24T12:18:03;6.00;;;1.50;;
51836;SDS011;38941;53.254;6.600;2023-04-24T12:20:05;4.72;;;1.40;;
51836;SDS011;38941;53.254;6.600;2023-04-24T12:22:07;5.20;;;1.50;;
51836;SDS011;38941;53.254;6.600;2023-04-24T12:24:09;6.25;;;1.40;;
51836;SDS011;38941;53.254;6.600;2023-04-24T12:26:09;4.32;;;1.00;;